createdAt,value
2023-04-21T00:00:53.772Z,100.00
2023-04-21T00:03:22.151Z,100.00
2023-04-21T00:05:49.786Z,100.00
2023-04-21T00:08:17.026Z,100.00
2023-04-21T00:10:44.085Z,100.00
2023-04-21T00:13:10.874Z,100.00
2023-04-21T00:15:37.430Z,100.00
2023-04-21T00:18:04.249Z,100.00
2023-04-21T00:20:31.542Z,100.00
2023-04-21T00:22:58.851Z,100.00
2023-04-21T00:25:25.707Z,100.00
2023-04-21T00:27:54.770Z,100.00
2023-04-21T00:30:21.546Z,100.00
2023-04-21T00:32:48.146Z,100.00
2023-04-21T00:35:14.765Z,100.00
2023-04-21T00:37:41.674Z,100.00
2023-04-21T00:40:09.505Z,100.00
2023-04-21T00:42:36.123Z,100.00
2023-04-21T00:45:04.362Z,100.00
2023-04-21T00:47:31.388Z,100.00
2023-04-21T00:50:01.312Z,100.00
2023-04-21T00:52:28.940Z,100.00
2023-04-21T00:54:56.598Z,100.00
2023-04-21T00:57:23.222Z,100.00
2023-04-21T00:59:52.496Z,100.00
2023-04-21T01:02:19.553Z,100.00
2023-04-21T01:04:46.165Z,100.00
2023-04-21T01:07:12.864Z,100.00
2023-04-21T01:09:39.639Z,100.00
2023-04-21T01:12:11.161Z,100.00
2023-04-21T01:14:39.518Z,100.00
2023-04-21T01:17:07.699Z,100.00
2023-04-21T01:19:39.332Z,100.00
2023-04-21T01:22:11.246Z,100.00
2023-04-21T01:24:39.792Z,100.00
2023-04-21T01:27:18.756Z,100.00
2023-04-21T01:29:47.733Z,100.00
2023-04-21T01:32:20.943Z,100.00
2023-04-21T01:34:49.222Z,100.00
2023-04-21T01:37:19.248Z,100.00
2023-04-21T01:39:52.216Z,100.00
2023-04-21T01:42:19.264Z,100.00
2023-04-21T01:44:46.993Z,100.00
2023-04-21T01:47:14.157Z,100.00
2023-04-21T01:49:40.729Z,100.00
2023-04-21T01:52:07.563Z,100.00
2023-04-21T01:54:35.057Z,100.00
2023-04-21T01:57:02.463Z,100.00
2023-04-21T01:59:29.101Z,100.00
2023-04-21T02:01:55.703Z,100.00
2023-04-21T02:04:22.361Z,100.00
2023-04-21T02:06:49.058Z,100.00
2023-04-21T02:09:15.893Z,100.00
2023-04-21T02:11:42.436Z,100.00
2023-04-21T02:14:08.969Z,100.00
2023-04-21T02:16:36.011Z,100.00
2023-04-21T02:19:03.253Z,100.00
2023-04-21T02:21:29.771Z,100.00
2023-04-21T02:23:56.345Z,100.00
2023-04-21T02:26:23.586Z,100.00
2023-04-21T02:28:50.386Z,100.00
2023-04-21T02:31:20.465Z,100.00
2023-04-21T02:33:46.982Z,100.00
2023-04-21T02:36:13.460Z,100.00
2023-04-21T02:38:40.000Z,100.00
2023-04-21T02:41:06.543Z,100.00
2023-04-21T02:43:33.009Z,100.00
2023-04-21T02:45:59.526Z,100.00
2023-04-21T02:48:26.832Z,100.00
2023-04-21T02:50:53.488Z,100.00
2023-04-21T02:53:20.875Z,100.00
2023-04-21T02:55:47.559Z,100.00
2023-04-21T02:58:14.058Z,100.00
2023-04-21T03:00:40.736Z,100.00
2023-04-21T03:03:10.141Z,100.00
2023-04-21T03:05:36.785Z,100.00
2023-04-21T03:08:03.364Z,100.00
2023-04-21T03:10:29.920Z,100.00
2023-04-21T03:12:56.583Z,100.00
2023-04-21T03:15:23.893Z,100.00
2023-04-21T03:17:50.644Z,100.00
2023-04-21T03:20:17.931Z,100.00
2023-04-21T03:22:44.416Z,100.00
2023-04-21T03:25:11.989Z,100.00
2023-04-21T03:27:38.652Z,100.00
2023-04-21T03:30:06.805Z,100.00
2023-04-21T03:32:33.381Z,100.00
2023-04-21T03:34:59.987Z,100.00
2023-04-21T03:37:26.528Z,100.00
2023-04-21T03:39:53.034Z,100.00
2023-04-21T03:42:19.510Z,100.00
2023-04-21T03:44:45.958Z,100.00
2023-04-21T03:47:12.642Z,100.00
2023-04-21T03:49:39.156Z,100.00
2023-04-21T03:52:05.708Z,100.00
2023-04-21T03:54:32.181Z,100.00
2023-04-21T03:56:58.701Z,100.00
2023-04-21T03:59:25.138Z,100.00
2023-04-21T04:01:51.714Z,100.00
2023-04-21T04:04:18.442Z,100.00
2023-04-21T04:06:45.195Z,100.00
2023-04-21T04:09:11.651Z,100.00
2023-04-21T04:11:38.142Z,100.00
2023-04-21T04:14:04.595Z,100.00
2023-04-21T04:16:31.189Z,100.00
2023-04-21T04:18:57.727Z,100.00
2023-04-21T04:21:24.243Z,100.00
2023-04-21T04:23:54.124Z,100.00
2023-04-21T04:26:22.706Z,100.00
2023-04-21T04:28:49.274Z,100.00
2023-04-21T04:31:17.182Z,100.00
2023-04-21T04:33:44.231Z,100.00
2023-04-21T04:36:13.692Z,100.00
2023-04-21T04:38:40.332Z,100.00
2023-04-21T04:41:08.781Z,100.00
2023-04-21T04:43:39.344Z,100.00
2023-04-21T04:46:06.426Z,100.00
2023-04-21T04:48:33.070Z,100.00
2023-04-21T04:50:59.581Z,100.00
2023-04-21T04:53:28.235Z,100.00
2023-04-21T04:55:54.809Z,100.00
2023-04-21T04:58:22.188Z,100.00
2023-04-21T05:00:48.748Z,100.00
2023-04-21T05:03:15.399Z,100.00
2023-04-21T05:05:42.023Z,100.00
2023-04-21T05:08:08.537Z,100.00
2023-04-21T05:10:35.445Z,100.00
2023-04-21T05:13:01.959Z,100.00
2023-04-21T05:15:28.444Z,100.00
2023-04-21T05:17:55.058Z,100.00
2023-04-21T05:20:25.294Z,100.00
2023-04-21T05:22:51.770Z,100.00
2023-04-21T05:25:18.250Z,100.00
2023-04-21T05:27:44.790Z,100.00
2023-04-21T05:30:11.581Z,100.00
2023-04-21T05:32:38.225Z,100.00
2023-04-21T05:35:05.010Z,100.00
2023-04-21T05:37:31.552Z,100.00
2023-04-21T05:39:58.001Z,100.00
2023-04-21T05:42:24.512Z,100.00
2023-04-21T05:44:51.012Z,100.00
2023-04-21T05:47:17.478Z,100.00
2023-04-21T05:49:49.972Z,100.00
2023-04-21T05:52:17.771Z,100.00
2023-04-21T05:54:44.574Z,100.00
2023-04-21T05:57:16.226Z,100.00
2023-04-21T05:59:43.671Z,100.00
2023-04-21T06:02:10.554Z,100.00
2023-04-21T06:04:37.228Z,100.00
2023-04-21T06:07:09.642Z,100.00
2023-04-21T06:09:36.796Z,100.00
2023-04-21T06:12:03.624Z,100.00
2023-04-21T06:14:30.198Z,100.00
2023-04-21T06:16:56.657Z,100.00
2023-04-21T06:19:23.185Z,100.00
2023-04-21T06:21:49.822Z,100.00
2023-04-21T06:24:17.174Z,100.00
2023-04-21T06:26:43.817Z,100.00
2023-04-21T06:29:10.267Z,100.00
2023-04-21T06:31:36.777Z,100.00
2023-04-21T06:34:03.304Z,100.00
2023-04-21T06:36:29.778Z,100.00
2023-04-21T06:38:56.305Z,100.00
2023-04-21T06:41:24.735Z,100.00
2023-04-21T06:43:51.526Z,100.00
2023-04-21T06:46:18.349Z,100.00
2023-04-21T06:48:45.000Z,100.00
2023-04-21T06:51:11.495Z,100.00
2023-04-21T06:53:38.277Z,100.00
2023-04-21T06:56:05.246Z,100.00
2023-04-21T06:58:31.735Z,100.00
2023-04-21T07:00:58.276Z,100.00
2023-04-21T07:03:24.967Z,100.00
2023-04-21T07:05:51.818Z,100.00
2023-04-21T07:08:19.966Z,100.00
2023-04-21T07:10:46.453Z,100.00
2023-04-21T07:13:15.609Z,100.00
2023-04-21T07:15:42.378Z,100.00
2023-04-21T07:18:08.865Z,100.00
2023-04-21T07:20:35.355Z,100.00
2023-04-21T07:23:01.856Z,100.00
2023-04-21T07:25:28.298Z,100.00
2023-04-21T07:27:54.792Z,100.00
2023-04-21T07:30:24.323Z,100.00
2023-04-21T07:32:50.986Z,100.00
2023-04-21T07:35:17.663Z,100.00
2023-04-21T07:37:44.658Z,100.00
2023-04-21T07:40:11.727Z,100.00
2023-04-21T07:42:38.429Z,100.00
2023-04-21T07:45:05.703Z,100.00
2023-04-21T07:47:36.046Z,100.00
2023-04-21T07:50:02.925Z,100.00
2023-04-21T07:52:29.393Z,100.00
2023-04-21T07:54:56.072Z,100.00
2023-04-21T07:57:22.571Z,100.00
2023-04-21T07:59:49.377Z,100.00
2023-04-21T08:02:16.065Z,100.00
2023-04-21T08:04:42.693Z,100.00
2023-04-21T08:07:10.028Z,100.00
2023-04-21T08:09:36.886Z,100.00
2023-04-21T08:12:03.521Z,100.00
2023-04-21T08:14:31.069Z,100.00
2023-04-21T08:16:57.965Z,100.00
2023-04-21T08:19:25.014Z,100.00
2023-04-21T08:21:52.156Z,100.00
2023-04-21T08:24:19.224Z,100.00
2023-04-21T08:26:45.951Z,100.00
2023-04-21T08:29:13.372Z,100.00
2023-04-21T08:31:40.004Z,100.00
2023-04-21T08:34:07.245Z,100.00
2023-04-21T08:36:34.308Z,100.00
2023-04-21T08:39:01.742Z,100.00
2023-04-21T08:41:28.285Z,100.00
2023-04-21T08:43:54.785Z,100.00
2023-04-21T08:46:22.891Z,100.00
2023-04-21T08:48:49.604Z,100.00
2023-04-21T08:51:22.198Z,100.00
2023-04-21T08:53:48.694Z,100.00
2023-04-21T08:56:15.543Z,100.00
2023-04-21T08:58:42.204Z,100.00
2023-04-21T09:01:08.862Z,100.00
2023-04-21T09:03:35.708Z,100.00
2023-04-21T09:06:07.958Z,100.00
2023-04-21T09:08:38.481Z,100.00
2023-04-21T09:11:05.506Z,100.00
2023-04-21T09:13:34.248Z,100.00
2023-04-21T09:16:08.528Z,100.00
2023-04-21T09:18:37.403Z,100.00
2023-04-21T09:21:08.727Z,100.00
2023-04-21T09:23:51.877Z,100.00
2023-04-21T09:26:20.230Z,99.64
2023-04-21T09:28:49.657Z,100.00
2023-04-21T09:31:19.950Z,100.00
2023-04-21T09:33:57.105Z,98.12
2023-04-21T09:36:27.918Z,100.00
2023-04-21T09:39:08.979Z,96.81
2023-04-21T09:41:41.337Z,92.63
2023-04-21T09:44:07.936Z,93.10
2023-04-21T09:46:36.729Z,92.92
2023-04-21T09:49:04.368Z,92.99
2023-04-21T09:56:50.310Z,92.54
2023-04-21T09:59:24.251Z,88.81
2023-04-21T10:01:53.827Z,86.97
2023-04-21T10:04:22.911Z,90.27
2023-04-21T10:06:51.162Z,89.14
2023-04-21T10:09:21.163Z,86.94
2023-04-21T10:11:47.748Z,87.16
2023-04-21T10:14:14.239Z,88.38
2023-04-21T10:16:42.071Z,84.08
2023-04-21T10:19:28.152Z,86.14
2023-04-21T10:21:58.786Z,85.23
2023-04-21T10:24:29.697Z,84.18
2023-04-21T10:27:02.145Z,85.25
2023-04-21T10:29:43.604Z,85.75
2023-04-21T10:32:45.480Z,86.74
2023-04-21T10:35:21.546Z,84.19
2023-04-21T10:37:49.704Z,79.87
2023-04-21T10:40:43.162Z,81.84
2023-04-21T10:43:46.479Z,79.13
2023-04-21T10:46:53.788Z,78.75
2023-04-21T10:49:25.673Z,80.79
2023-04-21T10:52:07.319Z,75.13
2023-04-21T10:54:49.331Z,79.29
2023-04-21T10:57:21.385Z,77.97
2023-04-21T10:59:49.531Z,77.69
2023-04-21T11:02:18.998Z,77.26
2023-04-21T11:04:50.432Z,77.34
2023-04-21T11:07:20.128Z,78.65
2023-04-21T11:09:48.190Z,75.78
2023-04-21T11:12:18.302Z,75.30
2023-04-21T11:14:49.942Z,74.07
2023-04-21T11:17:24.322Z,74.75
2023-04-21T11:19:54.405Z,74.08
2023-04-21T11:22:23.229Z,71.81
2023-04-21T11:24:54.649Z,70.04
2023-04-21T11:27:22.388Z,70.36
2023-04-21T11:29:50.236Z,75.97
2023-04-21T11:32:17.725Z,69.53
2023-04-21T11:34:44.687Z,71.86
2023-04-21T11:37:16.789Z,72.50
2023-04-21T11:39:44.347Z,74.51
2023-04-21T11:42:11.966Z,70.10
2023-04-21T11:44:39.806Z,68.52
2023-04-21T11:47:20.971Z,69.32
2023-04-21T11:49:58.848Z,66.07
2023-04-21T11:52:28.094Z,63.10
2023-04-21T11:55:03.708Z,64.81
2023-04-21T11:57:32.634Z,70.02
2023-04-21T12:00:04.665Z,64.70
2023-04-21T12:02:33.375Z,65.40
2023-04-21T12:05:11.747Z,67.76
2023-04-21T12:07:43.654Z,63.61
2023-04-21T12:10:20.568Z,63.19
2023-04-21T12:12:48.102Z,60.79
2023-04-21T12:15:20.363Z,62.02
2023-04-21T12:17:48.832Z,61.45
2023-04-21T12:20:23.444Z,56.57
2023-04-21T12:22:50.621Z,61.30
2023-04-21T12:25:17.353Z,57.84
2023-04-21T12:27:51.078Z,53.83
2023-04-21T12:30:18.025Z,54.32
2023-04-21T12:32:44.646Z,53.66
2023-04-21T12:35:11.344Z,54.26
2023-04-21T12:37:37.914Z,55.93
2023-04-21T12:40:05.406Z,54.56
2023-04-21T12:42:31.927Z,58.79
2023-04-21T12:44:58.656Z,58.71
2023-04-21T12:47:25.362Z,56.07
2023-04-21T12:49:51.883Z,54.84
2023-04-21T12:52:18.369Z,52.54
2023-04-21T12:54:44.973Z,55.09
2023-04-21T12:57:11.573Z,54.18
2023-04-21T12:59:38.111Z,53.48
2023-04-21T13:02:04.825Z,54.38
2023-04-21T13:04:32.494Z,56.04
2023-04-21T13:06:59.358Z,55.92
2023-04-21T13:09:26.043Z,56.18
2023-04-21T13:11:52.494Z,54.99
2023-04-21T13:14:19.039Z,54.51
2023-04-21T13:16:45.654Z,54.72
2023-04-21T13:19:12.159Z,52.66
2023-04-21T13:21:38.729Z,53.90
2023-04-21T13:24:05.930Z,54.04
2023-04-21T13:26:33.795Z,56.79
2023-04-21T13:29:00.906Z,58.02
2023-04-21T13:31:27.498Z,55.50
2023-04-21T13:33:54.330Z,54.71
2023-04-21T13:36:20.965Z,54.54
2023-04-21T13:38:48.150Z,55.31
2023-04-21T13:41:14.774Z,52.84
2023-04-21T13:43:41.372Z,53.25
2023-04-21T13:46:08.060Z,52.70
2023-04-21T13:48:34.559Z,53.01
2023-04-21T13:51:01.103Z,53.42
2023-04-21T13:53:27.592Z,54.20
2023-04-21T13:55:56.838Z,52.36
2023-04-21T13:58:23.449Z,54.00
2023-04-21T14:00:49.982Z,54.11
2023-04-21T14:03:16.864Z,54.93
2023-04-21T14:05:43.810Z,51.56
2023-04-21T14:08:10.784Z,52.75
2023-04-21T14:10:37.410Z,50.72
2023-04-21T14:13:06.858Z,50.69
2023-04-21T14:15:33.325Z,50.75
2023-04-21T14:18:00.554Z,48.40
2023-04-21T14:20:27.413Z,52.09
2023-04-21T14:22:54.023Z,53.18
2023-04-21T14:25:20.858Z,51.71
2023-04-21T14:27:47.350Z,52.35
2023-04-21T14:30:14.643Z,52.92
2023-04-21T14:32:47.365Z,52.05
2023-04-21T14:35:14.343Z,52.26
2023-04-21T14:37:41.254Z,51.98
2023-04-21T14:40:09.018Z,52.08
2023-04-21T14:42:35.961Z,52.42
2023-04-21T14:45:02.649Z,52.56
2023-04-21T14:47:29.189Z,50.52
2023-04-21T14:49:59.046Z,53.22
2023-04-21T14:52:26.900Z,54.88
2023-04-21T14:54:53.616Z,52.86
2023-04-21T14:57:21.734Z,53.63
2023-04-21T14:59:52.381Z,55.00
2023-04-21T15:02:20.140Z,54.94
2023-04-21T15:04:46.952Z,56.21
2023-04-21T15:07:13.524Z,55.53
2023-04-21T15:09:41.157Z,54.82
2023-04-21T15:12:07.685Z,56.48
2023-04-21T15:14:34.233Z,55.18
2023-04-21T15:17:00.755Z,56.44
2023-04-21T15:19:27.267Z,56.74
2023-04-21T15:21:53.762Z,53.48
2023-04-21T15:24:20.293Z,53.90
2023-04-21T15:26:46.789Z,53.53
2023-04-21T15:29:13.345Z,56.12
2023-04-21T15:31:40.652Z,55.91
2023-04-21T15:34:07.349Z,55.66
2023-04-21T15:36:34.263Z,56.56
2023-04-21T15:39:00.880Z,57.12
2023-04-21T15:41:29.438Z,57.12
2023-04-21T15:43:59.535Z,57.63
2023-04-21T15:46:26.124Z,57.57
2023-04-21T15:48:52.664Z,57.81
2023-04-21T15:51:19.204Z,58.47
2023-04-21T15:53:47.895Z,59.16
2023-04-21T15:56:15.535Z,58.06
2023-04-21T15:58:43.136Z,57.31
2023-04-21T16:01:09.903Z,56.34
2023-04-21T16:03:36.880Z,56.88
2023-04-21T16:06:04.034Z,58.37
2023-04-21T16:08:33.040Z,59.01
2023-04-21T16:11:00.342Z,56.51
2023-04-21T16:13:27.057Z,57.51
2023-04-21T16:15:53.681Z,56.23
2023-04-21T16:18:20.941Z,58.15
2023-04-21T16:20:47.825Z,56.76
2023-04-21T16:23:15.208Z,56.64
2023-04-21T16:25:42.436Z,58.06
2023-04-21T16:28:09.739Z,57.98
2023-04-21T16:30:38.639Z,58.84
2023-04-21T16:33:05.139Z,59.96
2023-04-21T16:35:31.993Z,59.90
2023-04-21T16:37:58.607Z,59.07
2023-04-21T16:40:25.532Z,59.24
2023-04-21T16:42:52.436Z,59.74
2023-04-21T16:45:19.061Z,59.90
2023-04-21T16:47:45.846Z,59.50
2023-04-21T16:50:12.436Z,57.33
2023-04-21T16:52:39.107Z,59.18
2023-04-21T16:55:06.068Z,60.86
2023-04-21T16:57:33.190Z,60.07
2023-04-21T16:59:59.900Z,59.03
2023-04-21T17:02:26.580Z,60.10
2023-04-21T17:04:53.168Z,59.13
2023-04-21T17:07:19.670Z,59.60
2023-04-21T17:09:46.377Z,60.62
2023-04-21T17:12:12.875Z,59.88
2023-04-21T17:14:40.325Z,59.27
2023-04-21T17:17:07.269Z,59.83
2023-04-21T17:19:33.907Z,62.00
2023-04-21T17:22:00.492Z,61.73
2023-04-21T17:24:29.567Z,61.26
2023-04-21T17:26:59.781Z,61.98
2023-04-21T17:29:29.132Z,62.19
2023-04-21T17:31:55.712Z,62.98
2023-04-21T17:34:22.203Z,62.36
2023-04-21T17:36:48.682Z,61.88
2023-04-21T17:39:15.858Z,61.84
2023-04-21T17:41:42.639Z,63.11
2023-04-21T17:44:09.147Z,63.49
2023-04-21T17:46:37.523Z,63.63
2023-04-21T17:49:04.070Z,64.64
2023-04-21T17:51:31.029Z,64.67
2023-04-21T17:53:57.499Z,65.23
2023-04-21T17:56:24.074Z,65.25
2023-04-21T17:58:51.756Z,64.88
2023-04-21T18:01:18.311Z,65.33
2023-04-21T18:03:44.970Z,65.62
2023-04-21T18:06:15.794Z,66.61
2023-04-21T18:08:42.989Z,67.10
2023-04-21T18:11:09.505Z,67.22
2023-04-21T18:13:36.012Z,68.33
2023-04-21T18:16:03.345Z,68.00
2023-04-21T18:18:29.836Z,68.65
2023-04-21T18:20:56.310Z,69.30
2023-04-21T18:23:22.801Z,69.59
2023-04-21T18:25:52.928Z,69.64
2023-04-21T18:28:19.413Z,70.35
2023-04-21T18:30:46.730Z,71.12
2023-04-21T18:33:13.339Z,72.16
2023-04-21T18:35:41.683Z,72.94
2023-04-21T18:38:10.513Z,72.87
2023-04-21T18:40:41.192Z,73.76
2023-04-21T18:43:09.648Z,73.91
2023-04-21T18:45:36.660Z,74.52
2023-04-21T18:48:03.294Z,74.79
2023-04-21T18:50:30.880Z,74.52
2023-04-21T18:52:58.113Z,75.13
2023-04-21T18:55:27.990Z,76.06
2023-04-21T18:57:54.803Z,75.64
2023-04-21T19:00:21.338Z,75.52
2023-04-21T19:02:51.405Z,75.61
2023-04-21T19:05:18.587Z,75.91
2023-04-21T19:07:47.431Z,77.50
2023-04-21T19:10:14.033Z,78.75
2023-04-21T19:12:41.570Z,80.71
2023-04-21T19:15:08.723Z,82.59
2023-04-21T19:17:35.553Z,83.74
2023-04-21T19:20:02.133Z,83.51
2023-04-21T19:22:31.789Z,82.28
2023-04-21T19:24:58.339Z,82.04
2023-04-21T19:27:24.902Z,83.38
2023-04-21T19:29:51.485Z,83.58
2023-04-21T19:32:18.148Z,83.45
2023-04-21T19:34:44.857Z,83.24
2023-04-21T19:37:11.495Z,84.24
2023-04-21T19:39:37.979Z,85.30
2023-04-21T19:42:04.794Z,85.62
2023-04-21T19:44:32.923Z,85.53
2023-04-21T19:46:59.496Z,85.28
2023-04-21T19:49:26.231Z,85.35
2023-04-21T19:51:52.689Z,85.91
2023-04-21T19:54:19.162Z,86.35
2023-04-21T19:56:45.783Z,87.16
2023-04-21T19:59:19.300Z,87.54
2023-04-21T20:01:45.807Z,87.75
2023-04-21T20:04:12.712Z,87.58
2023-04-21T20:06:45.669Z,86.96
2023-04-21T20:09:13.490Z,87.36
2023-04-21T20:11:40.256Z,88.17
2023-04-21T20:14:09.557Z,88.64
2023-04-21T20:16:39.625Z,88.64
2023-04-21T20:19:10.229Z,88.75
2023-04-21T20:21:37.237Z,89.22
2023-04-21T20:24:03.813Z,89.47
2023-04-21T20:26:30.336Z,89.95
2023-04-21T20:28:56.824Z,90.34
2023-04-21T20:31:25.470Z,90.81
2023-04-21T20:33:52.159Z,90.69
2023-04-21T20:36:18.709Z,90.85
2023-04-21T20:38:46.460Z,91.25
2023-04-21T20:41:13.515Z,91.63
2023-04-21T20:43:40.338Z,91.80
2023-04-21T20:46:08.065Z,91.53
2023-04-21T20:48:34.638Z,91.32
2023-04-21T20:51:01.138Z,90.82
2023-04-21T20:53:27.982Z,90.96
2023-04-21T20:55:54.570Z,91.09
2023-04-21T20:58:21.138Z,91.12
2023-04-21T21:00:47.784Z,91.68
2023-04-21T21:03:14.340Z,92.08
2023-04-21T21:05:41.378Z,92.40
2023-04-21T21:08:08.860Z,92.24
2023-04-21T21:10:35.666Z,92.99
2023-04-21T21:13:02.243Z,93.58
2023-04-21T21:15:30.447Z,93.49
2023-04-21T21:17:57.527Z,93.20
2023-04-21T21:20:26.950Z,93.30
2023-04-21T21:22:59.800Z,93.34
2023-04-21T21:25:26.767Z,93.08
2023-04-21T21:27:54.178Z,93.32
2023-04-21T21:30:20.807Z,93.40
2023-04-21T21:32:47.731Z,93.60
2023-04-21T21:35:14.282Z,93.70
2023-04-21T21:37:40.828Z,93.49
2023-04-21T21:40:09.514Z,93.34
2023-04-21T21:42:37.545Z,93.50
2023-04-21T21:45:07.619Z,93.55
2023-04-21T21:47:36.498Z,92.79
2023-04-21T21:50:05.258Z,93.26
2023-04-21T21:52:31.782Z,92.83
2023-04-21T21:54:58.470Z,92.54
2023-04-21T21:57:28.598Z,91.98
2023-04-21T21:59:57.988Z,92.31
2023-04-21T22:02:24.670Z,92.09
2023-04-21T22:04:55.589Z,92.79
2023-04-21T22:07:25.355Z,93.72
2023-04-21T22:09:52.491Z,93.36
2023-04-21T22:12:18.996Z,92.63
2023-04-21T22:14:46.626Z,92.70
2023-04-21T22:17:13.107Z,92.33
2023-04-21T22:19:45.419Z,92.70
2023-04-21T22:22:12.156Z,93.07
2023-04-21T22:24:38.734Z,93.37
2023-04-21T22:27:16.143Z,93.55
2023-04-21T22:29:42.864Z,94.05
2023-04-21T22:32:10.154Z,93.88
2023-04-21T22:34:36.740Z,94.54
2023-04-21T22:37:03.265Z,94.95
2023-04-21T22:39:29.971Z,95.75
2023-04-21T22:41:59.441Z,95.62
2023-04-21T22:44:28.499Z,95.58
2023-04-21T22:46:55.533Z,95.81
2023-04-21T22:49:26.843Z,95.85
2023-04-21T22:51:54.343Z,95.82
2023-04-21T22:54:20.825Z,96.03
2023-04-21T22:56:47.467Z,96.41
2023-04-21T22:59:13.920Z,96.26
2023-04-21T23:01:43.125Z,96.57
2023-04-21T23:04:12.637Z,96.46
2023-04-21T23:06:42.030Z,96.28
2023-04-21T23:09:08.565Z,95.76
2023-04-21T23:11:35.078Z,95.36
2023-04-21T23:14:01.582Z,94.96
2023-04-21T23:16:28.060Z,94.45
2023-04-21T23:18:54.617Z,94.43
2023-04-21T23:21:21.122Z,94.21
2023-04-21T23:23:47.601Z,94.11
2023-04-21T23:26:14.120Z,94.44
2023-04-21T23:28:40.587Z,94.88
2023-04-21T23:31:07.216Z,94.82
2023-04-21T23:33:33.745Z,95.24
2023-04-21T23:36:00.263Z,94.91
2023-04-21T23:38:26.762Z,94.59
2023-04-21T23:40:55.271Z,94.60
2023-04-21T23:43:24.501Z,93.80
2023-04-21T23:45:51.926Z,93.74
2023-04-21T23:48:18.473Z,94.33
2023-04-21T23:50:45.037Z,94.88
2023-04-21T23:53:11.565Z,96.09
2023-04-21T23:55:38.155Z,96.79
2023-04-21T23:58:07.767Z,97.46
